sensor_id;sensor_type;location;lat;lon;timestamp;temperature;humidity
71291;DHT22;59073;51.994;4.448;2022-10-20T00:00:23;10.22;85.27
71291;DHT22;59073;51.994;4.448;2022-10-20T00:02:48;10.17;85.52
71291;DHT22;59073;51.994;4.448;2022-10-20T00:05:14;10.15;85.82
71291;DHT22;59073;51.994;4.448;2022-10-20T00:07:39;10.18;85.64
71291;DHT22;59073;51.994;4.448;2022-10-20T00:10:05;10.11;85.71
71291;DHT22;59073;51.994;4.448;2022-10-20T00:12:31;10.17;85.67
71291;DHT22;59073;51.994;4.448;2022-10-20T00:14:56;10.12;85.78
71291;DHT22;59073;51.994;4.448;2022-10-20T00:17:21;10.14;85.89
71291;DHT22;59073;51.994;4.448;2022-10-20T00:19:47;10.12;86.08
71291;DHT22;59073;51.994;4.448;2022-10-20T00:22:13;10.14;86.18
71291;DHT22;59073;51.994;4.448;2022-10-20T00:24:38;10.11;86.22
71291;DHT22;59073;51.994;4.448;2022-10-20T00:27:04;10.15;85.98
71291;DHT22;59073;51.994;4.448;2022-10-20T00:29:29;10.14;86.00
71291;DHT22;59073;51.994;4.448;2022-10-20T00:31:55;10.11;86.14
71291;DHT22;59073;51.994;4.448;2022-10-20T00:34:20;10.14;86.06
71291;DHT22;59073;51.994;4.448;2022-10-20T00:36:46;10.11;86.16
71291;DHT22;59073;51.994;4.448;2022-10-20T00:39:11;10.17;86.22
71291;DHT22;59073;51.994;4.448;2022-10-20T00:41:36;10.18;86.24
71291;DHT22;59073;51.994;4.448;2022-10-20T00:47:10;10.08;86.67
71291;DHT22;59073;51.994;4.448;2022-10-20T00:49:37;10.11;86.52
71291;DHT22;59073;51.994;4.448;2022-10-20T00:52:04;10.14;86.41
71291;DHT22;59073;51.994;4.448;2022-10-20T00:54:30;10.12;86.41
71291;DHT22;59073;51.994;4.448;2022-10-20T00:56:57;10.14;86.59
71291;DHT22;59073;51.994;4.448;2022-10-20T00:59:31;10.12;86.67
71291;DHT22;59073;51.994;4.448;2022-10-20T01:02:00;10.10;86.73
71291;DHT22;59073;51.994;4.448;2022-10-20T01:04:28;10.11;86.72
71291;DHT22;59073;51.994;4.448;2022-10-20T01:06:55;10.12;86.80
71291;DHT22;59073;51.994;4.448;2022-10-20T01:09:21;10.08;86.78
71291;DHT22;59073;51.994;4.448;2022-10-20T01:12:05;10.08;86.97
71291;DHT22;59073;51.994;4.448;2022-10-20T01:20:02;10.08;87.30
71291;DHT22;59073;51.994;4.448;2022-10-20T01:22:57;10.10;87.28
71291;DHT22;59073;51.994;4.448;2022-10-20T01:28:08;10.12;87.17
71291;DHT22;59073;51.994;4.448;2022-10-20T01:30:44;10.05;87.35
71291;DHT22;59073;51.994;4.448;2022-10-20T01:33:31;10.10;87.12
71291;DHT22;59073;51.994;4.448;2022-10-20T01:36:11;10.10;87.27
71291;DHT22;59073;51.994;4.448;2022-10-20T01:39:00;10.05;87.30
71291;DHT22;59073;51.994;4.448;2022-10-20T01:41:35;9.97;87.67
71291;DHT22;59073;51.994;4.448;2022-10-20T01:44:06;9.97;87.87
71291;DHT22;59073;51.994;4.448;2022-10-20T01:46:34;9.95;87.75
71291;DHT22;59073;51.994;4.448;2022-10-20T01:49:03;10.05;87.60
71291;DHT22;59073;51.994;4.448;2022-10-20T01:51:29;10.12;87.22
71291;DHT22;59073;51.994;4.448;2022-10-20T01:53:55;10.00;87.82
71291;DHT22;59073;51.994;4.448;2022-10-20T01:56:38;10.08;87.48
71291;DHT22;59073;51.994;4.448;2022-10-20T01:59:28;10.05;87.33
71291;DHT22;59073;51.994;4.448;2022-10-20T02:02:32;10.00;87.61
71291;DHT22;59073;51.994;4.448;2022-10-20T02:05:12;10.08;87.42
71291;DHT22;59073;51.994;4.448;2022-10-20T02:07:42;9.90;87.90
71291;DHT22;59073;51.994;4.448;2022-10-20T02:12:40;9.86;88.14
71291;DHT22;59073;51.994;4.448;2022-10-20T02:15:09;9.77;88.47
71291;DHT22;59073;51.994;4.448;2022-10-20T02:17:39;9.81;88.45
71291;DHT22;59073;51.994;4.448;2022-10-20T02:20:08;9.79;88.62
71291;DHT22;59073;51.994;4.448;2022-10-20T02:22:34;9.83;88.58
71291;DHT22;59073;51.994;4.448;2022-10-20T02:25:00;9.74;88.81
71291;DHT22;59073;51.994;4.448;2022-10-20T02:27:33;9.83;88.70
71291;DHT22;59073;51.994;4.448;2022-10-20T02:30:12;9.79;88.58
71291;DHT22;59073;51.994;4.448;2022-10-20T02:32:41;9.77;88.66
71291;DHT22;59073;51.994;4.448;2022-10-20T02:35:13;9.70;88.91
71291;DHT22;59073;51.994;4.448;2022-10-20T02:37:39;9.81;88.96
71291;DHT22;59073;51.994;4.448;2022-10-20T02:40:05;9.74;88.88
71291;DHT22;59073;51.994;4.448;2022-10-20T02:42:31;9.77;89.04
71291;DHT22;59073;51.994;4.448;2022-10-20T02:44:56;9.77;88.76
71291;DHT22;59073;51.994;4.448;2022-10-20T02:47:21;9.77;88.92
71291;DHT22;59073;51.994;4.448;2022-10-20T02:49:47;9.74;88.83
71291;DHT22;59073;51.994;4.448;2022-10-20T02:52:13;9.76;89.26
71291;DHT22;59073;51.994;4.448;2022-10-20T02:54:38;9.83;88.90
71291;DHT22;59073;51.994;4.448;2022-10-20T02:57:04;9.79;89.10
71291;DHT22;59073;51.994;4.448;2022-10-20T02:59:29;9.79;89.28
71291;DHT22;59073;51.994;4.448;2022-10-20T03:01:54;9.80;89.33
71291;DHT22;59073;51.994;4.448;2022-10-20T03:04:20;9.77;89.40
71291;DHT22;59073;51.994;4.448;2022-10-20T03:06:45;9.83;89.34
71291;DHT22;59073;51.994;4.448;2022-10-20T03:09:11;9.84;89.16
71291;DHT22;59073;51.994;4.448;2022-10-20T03:11:36;9.91;89.07
71291;DHT22;59073;51.994;4.448;2022-10-20T03:14:02;9.88;89.27
71291;DHT22;59073;51.994;4.448;2022-10-20T03:16:27;9.91;89.35
71291;DHT22;59073;51.994;4.448;2022-10-20T03:18:53;9.87;89.24
71291;DHT22;59073;51.994;4.448;2022-10-20T03:21:18;9.93;89.42
71291;DHT22;59073;51.994;4.448;2022-10-20T03:23:44;9.94;89.20
71291;DHT22;59073;51.994;4.448;2022-10-20T03:26:10;9.95;89.16
71291;DHT22;59073;51.994;4.448;2022-10-20T03:28:37;10.00;89.29
71291;DHT22;59073;51.994;4.448;2022-10-20T03:31:02;10.01;89.27
71291;DHT22;59073;51.994;4.448;2022-10-20T03:33:29;10.07;89.05
71291;DHT22;59073;51.994;4.448;2022-10-20T03:35:54;10.07;89.17
71291;DHT22;59073;51.994;4.448;2022-10-20T03:38:19;10.08;89.04
71291;DHT22;59073;51.994;4.448;2022-10-20T03:40:45;10.08;89.17
71291;DHT22;59073;51.994;4.448;2022-10-20T03:43:10;10.11;89.21
71291;DHT22;59073;51.994;4.448;2022-10-20T03:45:36;10.04;89.19
71291;DHT22;59073;51.994;4.448;2022-10-20T03:48:01;10.08;89.13
71291;DHT22;59073;51.994;4.448;2022-10-20T03:50:26;10.07;89.31
71291;DHT22;59073;51.994;4.448;2022-10-20T03:52:52;10.10;89.36
71291;DHT22;59073;51.994;4.448;2022-10-20T03:55:18;10.18;89.23
71291;DHT22;59073;51.994;4.448;2022-10-20T03:57:43;10.22;88.97
71291;DHT22;59073;51.994;4.448;2022-10-20T04:00:10;10.25;89.00
71291;DHT22;59073;51.994;4.448;2022-10-20T04:02:38;10.27;88.83
71291;DHT22;59073;51.994;4.448;2022-10-20T04:05:05;10.32;88.88
71291;DHT22;59073;51.994;4.448;2022-10-20T04:07:31;10.31;89.13
71291;DHT22;59073;51.994;4.448;2022-10-20T04:09:57;10.29;89.05
71291;DHT22;59073;51.994;4.448;2022-10-20T04:12:23;10.29;89.03
71291;DHT22;59073;51.994;4.448;2022-10-20T04:14:49;10.32;89.16
71291;DHT22;59073;51.994;4.448;2022-10-20T04:17:15;10.42;89.04
71291;DHT22;59073;51.994;4.448;2022-10-20T04:19:40;10.39;89.02
71291;DHT22;59073;51.994;4.448;2022-10-20T04:22:05;10.37;89.12
71291;DHT22;59073;51.994;4.448;2022-10-20T04:24:31;10.42;89.08
71291;DHT22;59073;51.994;4.448;2022-10-20T04:26:57;10.44;89.23
71291;DHT22;59073;51.994;4.448;2022-10-20T04:29:22;10.39;89.32
71291;DHT22;59073;51.994;4.448;2022-10-20T04:31:48;10.42;89.28
71291;DHT22;59073;51.994;4.448;2022-10-20T04:34:13;10.39;89.45
71291;DHT22;59073;51.994;4.448;2022-10-20T04:36:39;10.48;89.62
71291;DHT22;59073;51.994;4.448;2022-10-20T04:39:05;10.44;89.52
71291;DHT22;59073;51.994;4.448;2022-10-20T04:41:31;10.48;89.50
71291;DHT22;59073;51.994;4.448;2022-10-20T04:43:56;10.52;89.25
71291;DHT22;59073;51.994;4.448;2022-10-20T04:46:21;10.55;89.39
71291;DHT22;59073;51.994;4.448;2022-10-20T04:48:47;10.60;89.25
71291;DHT22;59073;51.994;4.448;2022-10-20T04:51:14;10.58;89.23
71291;DHT22;59073;51.994;4.448;2022-10-20T04:53:40;10.69;88.97
71291;DHT22;59073;51.994;4.448;2022-10-20T04:56:09;10.69;89.01
71291;DHT22;59073;51.994;4.448;2022-10-20T04:58:35;10.68;88.96
71291;DHT22;59073;51.994;4.448;2022-10-20T05:01:10;10.63;89.25
71291;DHT22;59073;51.994;4.448;2022-10-20T05:03:36;10.68;89.37
71291;DHT22;59073;51.994;4.448;2022-10-20T05:06:09;10.63;89.44
71291;DHT22;59073;51.994;4.448;2022-10-20T05:08:35;10.58;89.52
71291;DHT22;59073;51.994;4.448;2022-10-20T05:11:01;10.58;89.50
71291;DHT22;59073;51.994;4.448;2022-10-20T05:13:26;10.70;89.45
71291;DHT22;59073;51.994;4.448;2022-10-20T05:15:52;10.62;89.46
71291;DHT22;59073;51.994;4.448;2022-10-20T05:18:18;10.68;89.71
71291;DHT22;59073;51.994;4.448;2022-10-20T05:20:43;10.66;89.59
71291;DHT22;59073;51.994;4.448;2022-10-20T05:23:09;10.69;89.52
71291;DHT22;59073;51.994;4.448;2022-10-20T05:25:38;10.66;89.61
71291;DHT22;59073;51.994;4.448;2022-10-20T05:28:04;10.68;89.51
71291;DHT22;59073;51.994;4.448;2022-10-20T05:30:30;10.68;89.58
71291;DHT22;59073;51.994;4.448;2022-10-20T05:32:55;10.70;89.42
71291;DHT22;59073;51.994;4.448;2022-10-20T05:35:21;10.70;89.29
71291;DHT22;59073;51.994;4.448;2022-10-20T05:37:46;10.70;89.43
71291;DHT22;59073;51.994;4.448;2022-10-20T05:40:12;10.72;89.48
71291;DHT22;59073;51.994;4.448;2022-10-20T05:42:37;10.73;89.53
71291;DHT22;59073;51.994;4.448;2022-10-20T05:45:04;10.69;89.65
71291;DHT22;59073;51.994;4.448;2022-10-20T05:47:30;10.72;89.59
71291;DHT22;59073;51.994;4.448;2022-10-20T05:49:56;10.73;89.40
71291;DHT22;59073;51.994;4.448;2022-10-20T05:52:21;10.75;89.35
71291;DHT22;59073;51.994;4.448;2022-10-20T05:54:47;10.73;89.46
71291;DHT22;59073;51.994;4.448;2022-10-20T05:57:12;10.76;89.30
71291;DHT22;59073;51.994;4.448;2022-10-20T05:59:38;10.75;89.42
71291;DHT22;59073;51.994;4.448;2022-10-20T06:02:03;10.80;89.30
71291;DHT22;59073;51.994;4.448;2022-10-20T06:04:30;10.88;89.10
71291;DHT22;59073;51.994;4.448;2022-10-20T06:06:56;10.82;89.21
71291;DHT22;59073;51.994;4.448;2022-10-20T06:09:22;10.90;88.91
71291;DHT22;59073;51.994;4.448;2022-10-20T06:11:49;10.86;88.92
71291;DHT22;59073;51.994;4.448;2022-10-20T06:14:16;10.93;88.77
71291;DHT22;59073;51.994;4.448;2022-10-20T06:16:42;10.93;88.79
71291;DHT22;59073;51.994;4.448;2022-10-20T06:19:10;10.96;88.75
71291;DHT22;59073;51.994;4.448;2022-10-20T06:21:36;10.92;88.91
71291;DHT22;59073;51.994;4.448;2022-10-20T06:24:03;10.90;88.95
71291;DHT22;59073;51.994;4.448;2022-10-20T06:26:31;10.99;89.03
71291;DHT22;59073;51.994;4.448;2022-10-20T06:28:58;10.96;88.96
71291;DHT22;59073;51.994;4.448;2022-10-20T06:31:34;10.95;88.95
71291;DHT22;59073;51.994;4.448;2022-10-20T06:34:00;11.07;88.69
71291;DHT22;59073;51.994;4.448;2022-10-20T06:36:28;11.13;88.27
71291;DHT22;59073;51.994;4.448;2022-10-20T06:38:56;11.10;88.25
71291;DHT22;59073;51.994;4.448;2022-10-20T06:41:24;11.06;88.45
71291;DHT22;59073;51.994;4.448;2022-10-20T06:43:49;11.03;88.66
71291;DHT22;59073;51.994;4.448;2022-10-20T06:46:19;11.01;88.78
71291;DHT22;59073;51.994;4.448;2022-10-20T06:48:45;11.07;89.01
71291;DHT22;59073;51.994;4.448;2022-10-20T06:51:13;11.06;88.78
71291;DHT22;59073;51.994;4.448;2022-10-20T06:53:40;11.04;89.01
71291;DHT22;59073;51.994;4.448;2022-10-20T06:56:09;11.04;89.04
71291;DHT22;59073;51.994;4.448;2022-10-20T06:58:37;11.04;88.94
71291;DHT22;59073;51.994;4.448;2022-10-20T07:01:06;11.11;88.92
71291;DHT22;59073;51.994;4.448;2022-10-20T07:03:34;11.11;88.84
71291;DHT22;59073;51.994;4.448;2022-10-20T07:06:00;11.13;88.78
71291;DHT22;59073;51.994;4.448;2022-10-20T07:08:27;11.16;88.70
71291;DHT22;59073;51.994;4.448;2022-10-20T07:11:04;11.17;88.74
71291;DHT22;59073;51.994;4.448;2022-10-20T07:13:30;11.16;88.85
71291;DHT22;59073;51.994;4.448;2022-10-20T07:15:57;11.24;88.56
71291;DHT22;59073;51.994;4.448;2022-10-20T07:18:24;11.24;88.52
71291;DHT22;59073;51.994;4.448;2022-10-20T07:20:50;11.34;88.35
71291;DHT22;59073;51.994;4.448;2022-10-20T07:23:16;11.32;88.36
71291;DHT22;59073;51.994;4.448;2022-10-20T07:25:42;11.31;88.62
71291;DHT22;59073;51.994;4.448;2022-10-20T07:28:08;11.38;88.45
71291;DHT22;59073;51.994;4.448;2022-10-20T07:30:38;11.44;88.39
71291;DHT22;59073;51.994;4.448;2022-10-20T07:33:04;11.50;88.28
71291;DHT22;59073;51.994;4.448;2022-10-20T07:35:29;11.47;88.29
71291;DHT22;59073;51.994;4.448;2022-10-20T07:37:55;11.42;88.46
71291;DHT22;59073;51.994;4.448;2022-10-20T07:40:20;11.41;88.63
71291;DHT22;59073;51.994;4.448;2022-10-20T07:42:46;11.50;88.28
71291;DHT22;59073;51.994;4.448;2022-10-20T07:45:11;11.51;88.16
71291;DHT22;59073;51.994;4.448;2022-10-20T07:47:37;11.57;87.94
71291;DHT22;59073;51.994;4.448;2022-10-20T07:50:02;11.69;87.94
71291;DHT22;59073;51.994;4.448;2022-10-20T07:52:27;11.75;87.69
71291;DHT22;59073;51.994;4.448;2022-10-20T07:54:55;11.71;87.75
71291;DHT22;59073;51.994;4.448;2022-10-20T07:57:21;11.75;87.68
71291;DHT22;59073;51.994;4.448;2022-10-20T07:59:46;11.81;87.73
71291;DHT22;59073;51.994;4.448;2022-10-20T08:02:12;11.78;87.52
71291;DHT22;59073;51.994;4.448;2022-10-20T08:04:40;11.93;87.35
71291;DHT22;59073;51.994;4.448;2022-10-20T08:07:09;11.92;87.31
71291;DHT22;59073;51.994;4.448;2022-10-20T08:09:35;12.05;87.07
71291;DHT22;59073;51.994;4.448;2022-10-20T08:12:01;12.08;86.95
71291;DHT22;59073;51.994;4.448;2022-10-20T08:14:26;12.16;86.88
71291;DHT22;59073;51.994;4.448;2022-10-20T08:16:51;12.13;86.90
71291;DHT22;59073;51.994;4.448;2022-10-20T08:19:17;12.23;86.57
71291;DHT22;59073;51.994;4.448;2022-10-20T08:21:42;12.22;86.75
71291;DHT22;59073;51.994;4.448;2022-10-20T08:24:08;12.25;86.67
71291;DHT22;59073;51.994;4.448;2022-10-20T08:26:33;12.26;86.66
71291;DHT22;59073;51.994;4.448;2022-10-20T08:28:58;12.36;86.57
71291;DHT22;59073;51.994;4.448;2022-10-20T08:31:24;12.43;86.35
71291;DHT22;59073;51.994;4.448;2022-10-20T08:33:50;12.54;86.24
71291;DHT22;59073;51.994;4.448;2022-10-20T08:36:15;12.49;86.19
71291;DHT22;59073;51.994;4.448;2022-10-20T08:38:41;12.51;86.40
71291;DHT22;59073;51.994;4.448;2022-10-20T08:41:18;12.64;86.24
71291;DHT22;59073;51.994;4.448;2022-10-20T08:43:46;12.64;86.08
71291;DHT22;59073;51.994;4.448;2022-10-20T08:46:18;12.65;86.10
71291;DHT22;59073;51.994;4.448;2022-10-20T08:48:45;12.70;85.83
71291;DHT22;59073;51.994;4.448;2022-10-20T08:51:21;12.85;85.81
71291;DHT22;59073;51.994;4.448;2022-10-20T08:53:51;12.84;85.85
71291;DHT22;59073;51.994;4.448;2022-10-20T08:56:22;12.88;85.58
71291;DHT22;59073;51.994;4.448;2022-10-20T08:58:49;12.90;85.80
71291;DHT22;59073;51.994;4.448;2022-10-20T09:01:33;12.94;85.67
71291;DHT22;59073;51.994;4.448;2022-10-20T09:04:15;13.02;85.72
71291;DHT22;59073;51.994;4.448;2022-10-20T09:06:46;13.10;85.36
71291;DHT22;59073;51.994;4.448;2022-10-20T09:09:17;13.05;85.57
71291;DHT22;59073;51.994;4.448;2022-10-20T09:11:44;13.12;85.45
71291;DHT22;59073;51.994;4.448;2022-10-20T09:14:14;13.28;85.20
71291;DHT22;59073;51.994;4.448;2022-10-20T09:16:42;13.26;85.16
71291;DHT22;59073;51.994;4.448;2022-10-20T09:19:21;13.25;85.44
71291;DHT22;59073;51.994;4.448;2022-10-20T09:21:52;13.32;85.28
71291;DHT22;59073;51.994;4.448;2022-10-20T09:24:23;13.36;84.87
71291;DHT22;59073;51.994;4.448;2022-10-20T09:26:51;13.34;85.60
71291;DHT22;59073;51.994;4.448;2022-10-20T09:29:22;13.36;85.65
71291;DHT22;59073;51.994;4.448;2022-10-20T09:31:58;13.35;85.69
71291;DHT22;59073;51.994;4.448;2022-10-20T09:37:22;13.66;85.00
71291;DHT22;59073;51.994;4.448;2022-10-20T09:39:53;13.76;84.48
71291;DHT22;59073;51.994;4.448;2022-10-20T09:42:39;13.73;84.66
71291;DHT22;59073;51.994;4.448;2022-10-20T09:45:20;13.84;84.59
71291;DHT22;59073;51.994;4.448;2022-10-20T09:47:51;13.84;84.51
71291;DHT22;59073;51.994;4.448;2022-10-20T09:50:27;13.97;84.25
71291;DHT22;59073;51.994;4.448;2022-10-20T09:52:55;13.99;84.29
71291;DHT22;59073;51.994;4.448;2022-10-20T09:55:30;13.97;84.53
71291;DHT22;59073;51.994;4.448;2022-10-20T09:58:00;14.07;84.32
71291;DHT22;59073;51.994;4.448;2022-10-20T10:00:29;14.06;84.35
71291;DHT22;59073;51.994;4.448;2022-10-20T10:03:21;14.13;84.65
71291;DHT22;59073;51.994;4.448;2022-10-20T10:09:00;14.46;83.95
71291;DHT22;59073;51.994;4.448;2022-10-20T10:15:04;14.59;83.87
71291;DHT22;59073;51.994;4.448;2022-10-20T10:17:37;14.49;84.57
71291;DHT22;59073;51.994;4.448;2022-10-20T10:25:40;14.62;85.50
71291;DHT22;59073;51.994;4.448;2022-10-20T10:28:21;14.72;85.37
71291;DHT22;59073;51.994;4.448;2022-10-20T10:30:48;14.82;85.21
71291;DHT22;59073;51.994;4.448;2022-10-20T10:33:25;14.81;85.18
71291;DHT22;59073;51.994;4.448;2022-10-20T10:35:51;14.82;85.33
71291;DHT22;59073;51.994;4.448;2022-10-20T10:38:17;14.79;85.73
71291;DHT22;59073;51.994;4.448;2022-10-20T10:41:12;14.75;86.06
71291;DHT22;59073;51.994;4.448;2022-10-20T10:46:26;14.68;86.74
71291;DHT22;59073;51.994;4.448;2022-10-20T10:49:00;14.55;87.40
71291;DHT22;59073;51.994;4.448;2022-10-20T10:54:53;14.52;87.81
71291;DHT22;59073;51.994;4.448;2022-10-20T10:57:31;14.62;87.77
71291;DHT22;59073;51.994;4.448;2022-10-20T11:00:09;14.67;88.02
71291;DHT22;59073;51.994;4.448;2022-10-20T11:02:59;14.75;87.38
71291;DHT22;59073;51.994;4.448;2022-10-20T11:11:11;15.34;86.20
71291;DHT22;59073;51.994;4.448;2022-10-20T11:19:40;15.22;86.70
71291;DHT22;59073;51.994;4.448;2022-10-20T11:22:22;15.13;87.22
71291;DHT22;59073;51.994;4.448;2022-10-20T11:27:28;15.74;85.99
71291;DHT22;59073;51.994;4.448;2022-10-20T11:29:59;15.84;85.56
71291;DHT22;59073;51.994;4.448;2022-10-20T11:37:40;16.21;84.46
71291;DHT22;59073;51.994;4.448;2022-10-20T11:43:05;16.23;84.61
71291;DHT22;59073;51.994;4.448;2022-10-20T11:48:21;16.06;85.35
71291;DHT22;59073;51.994;4.448;2022-10-20T11:56:55;16.06;86.18
71291;DHT22;59073;51.994;4.448;2022-10-20T11:59:51;16.28;86.03
71291;DHT22;59073;51.994;4.448;2022-10-20T12:10:51;16.15;86.24
71291;DHT22;59073;51.994;4.448;2022-10-20T12:16:01;16.01;86.59
71291;DHT22;59073;51.994;4.448;2022-10-20T12:18:29;15.95;86.91
71291;DHT22;59073;51.994;4.448;2022-10-20T12:21:00;15.95;87.26
71291;DHT22;59073;51.994;4.448;2022-10-20T12:29:44;15.87;87.69
71291;DHT22;59073;51.994;4.448;2022-10-20T12:39:50;16.25;87.60
71291;DHT22;59073;51.994;4.448;2022-10-20T12:42:26;16.05;87.89
71291;DHT22;59073;51.994;4.448;2022-10-20T12:44:52;16.18;87.98
71291;DHT22;59073;51.994;4.448;2022-10-20T12:47:26;16.12;87.90
71291;DHT22;59073;51.994;4.448;2022-10-20T12:50:23;16.00;88.25
71291;DHT22;59073;51.994;4.448;2022-10-20T12:53:38;15.97;88.66
71291;DHT22;59073;51.994;4.448;2022-10-20T12:56:09;16.05;88.44
71291;DHT22;59073;51.994;4.448;2022-10-20T12:58:37;16.11;88.46
71291;DHT22;59073;51.994;4.448;2022-10-20T13:01:04;16.26;88.08
71291;DHT22;59073;51.994;4.448;2022-10-20T13:05:57;16.39;87.47
71291;DHT22;59073;51.994;4.448;2022-10-20T13:08:34;16.33;88.13
71291;DHT22;59073;51.994;4.448;2022-10-20T13:16:48;16.42;88.27
71291;DHT22;59073;51.994;4.448;2022-10-20T13:19:42;16.56;88.33
71291;DHT22;59073;51.994;4.448;2022-10-20T13:24:57;17.10;86.74
71291;DHT22;59073;51.994;4.448;2022-10-20T13:27:23;17.17;86.57
71291;DHT22;59073;51.994;4.448;2022-10-20T13:29:50;17.49;86.46
71291;DHT22;59073;51.994;4.448;2022-10-20T13:32:38;17.62;85.27
71291;DHT22;59073;51.994;4.448;2022-10-20T13:35:31;17.59;85.14
71291;DHT22;59073;51.994;4.448;2022-10-20T13:37:59;17.59;85.02
71291;DHT22;59073;51.994;4.448;2022-10-20T13:43:20;17.86;84.52
71291;DHT22;59073;51.994;4.448;2022-10-20T13:48:52;17.78;84.59
71291;DHT22;59073;51.994;4.448;2022-10-20T13:51:17;18.02;84.55
71291;DHT22;59073;51.994;4.448;2022-10-20T13:53:47;18.03;84.51
71291;DHT22;59073;51.994;4.448;2022-10-20T14:01:28;17.93;84.58
71291;DHT22;59073;51.994;4.448;2022-10-20T14:03:55;18.13;84.28
71291;DHT22;59073;51.994;4.448;2022-10-20T14:08:58;18.54;83.32
71291;DHT22;59073;51.994;4.448;2022-10-20T14:11:31;18.75;83.38
71291;DHT22;59073;51.994;4.448;2022-10-20T14:13:58;18.96;83.02
71291;DHT22;59073;51.994;4.448;2022-10-20T14:16:28;18.95;82.03
71291;DHT22;59073;51.994;4.448;2022-10-20T14:19:04;18.95;81.80
71291;DHT22;59073;51.994;4.448;2022-10-20T14:21:44;18.96;81.63
71291;DHT22;59073;51.994;4.448;2022-10-20T14:24:22;19.05;81.40
71291;DHT22;59073;51.994;4.448;2022-10-20T14:26:49;18.92;81.76
71291;DHT22;59073;51.994;4.448;2022-10-20T14:29:17;18.81;81.98
71291;DHT22;59073;51.994;4.448;2022-10-20T14:31:45;18.65;82.49
71291;DHT22;59073;51.994;4.448;2022-10-20T14:34:19;18.72;82.67
71291;DHT22;59073;51.994;4.448;2022-10-20T14:36:46;18.79;82.40
71291;DHT22;59073;51.994;4.448;2022-10-20T14:39:34;18.58;82.96
71291;DHT22;59073;51.994;4.448;2022-10-20T14:42:04;18.65;82.54
71291;DHT22;59073;51.994;4.448;2022-10-20T14:44:30;18.65;82.78
71291;DHT22;59073;51.994;4.448;2022-10-20T14:46:59;18.69;82.68
71291;DHT22;59073;51.994;4.448;2022-10-20T14:49:33;18.71;82.93
71291;DHT22;59073;51.994;4.448;2022-10-20T14:54:47;18.82;82.74
71291;DHT22;59073;51.994;4.448;2022-10-20T14:59:56;18.82;82.46
71291;DHT22;59073;51.994;4.448;2022-10-20T15:02:37;18.85;82.50
71291;DHT22;59073;51.994;4.448;2022-10-20T15:05:43;18.88;82.24
71291;DHT22;59073;51.994;4.448;2022-10-20T15:08:17;18.98;82.18
71291;DHT22;59073;51.994;4.448;2022-10-20T15:10:45;18.95;82.11
71291;DHT22;59073;51.994;4.448;2022-10-20T15:13:29;18.96;82.13
71291;DHT22;59073;51.994;4.448;2022-10-20T15:15:58;19.01;82.12
71291;DHT22;59073;51.994;4.448;2022-10-20T15:18:24;19.12;81.61
71291;DHT22;59073;51.994;4.448;2022-10-20T15:20:52;19.09;81.42
71291;DHT22;59073;51.994;4.448;2022-10-20T15:23:22;19.09;81.48
71291;DHT22;59073;51.994;4.448;2022-10-20T15:25:57;19.22;81.15
71291;DHT22;59073;51.994;4.448;2022-10-20T15:28:37;19.24;81.49
71291;DHT22;59073;51.994;4.448;2022-10-20T15:31:23;18.99;82.01
71291;DHT22;59073;51.994;4.448;2022-10-20T15:33:50;19.03;81.93
71291;DHT22;59073;51.994;4.448;2022-10-20T15:36:19;19.15;81.58
71291;DHT22;59073;51.994;4.448;2022-10-20T15:38:47;19.12;81.58
71291;DHT22;59073;51.994;4.448;2022-10-20T15:41:17;19.05;81.76
71291;DHT22;59073;51.994;4.448;2022-10-20T15:43:43;18.75;82.61
71291;DHT22;59073;51.994;4.448;2022-10-20T15:46:11;18.87;82.42
71291;DHT22;59073;51.994;4.448;2022-10-20T15:48:37;19.01;82.06
71291;DHT22;59073;51.994;4.448;2022-10-20T15:51:03;18.88;82.24
71291;DHT22;59073;51.994;4.448;2022-10-20T15:53:29;18.87;82.46
71291;DHT22;59073;51.994;4.448;2022-10-20T15:55:54;18.78;82.88
71291;DHT22;59073;51.994;4.448;2022-10-20T15:58:27;18.69;83.01
71291;DHT22;59073;51.994;4.448;2022-10-20T16:00:53;18.61;83.40
71291;DHT22;59073;51.994;4.448;2022-10-20T16:03:18;18.47;83.55
71291;DHT22;59073;51.994;4.448;2022-10-20T16:05:45;18.41;83.69
71291;DHT22;59073;51.994;4.448;2022-10-20T16:08:10;18.36;83.70
71291;DHT22;59073;51.994;4.448;2022-10-20T16:10:37;18.24;84.09
71291;DHT22;59073;51.994;4.448;2022-10-20T16:13:04;18.29;83.92
71291;DHT22;59073;51.994;4.448;2022-10-20T16:15:30;18.24;84.15
71291;DHT22;59073;51.994;4.448;2022-10-20T16:17:55;18.17;83.78
71291;DHT22;59073;51.994;4.448;2022-10-20T16:20:21;18.17;83.87
71291;DHT22;59073;51.994;4.448;2022-10-20T16:22:46;18.20;83.53
71291;DHT22;59073;51.994;4.448;2022-10-20T16:25:12;18.20;83.55
71291;DHT22;59073;51.994;4.448;2022-10-20T16:27:38;18.27;83.02
71291;DHT22;59073;51.994;4.448;2022-10-20T16:30:04;18.14;82.97
71291;DHT22;59073;51.994;4.448;2022-10-20T16:32:31;18.13;82.86
71291;DHT22;59073;51.994;4.448;2022-10-20T16:34:57;18.13;82.56
71291;DHT22;59073;51.994;4.448;2022-10-20T16:37:23;18.07;82.47
71291;DHT22;59073;51.994;4.448;2022-10-20T16:39:49;17.93;82.79
71291;DHT22;59073;51.994;4.448;2022-10-20T16:42:14;17.73;83.89
71291;DHT22;59073;51.994;4.448;2022-10-20T16:44:39;17.66;84.30
71291;DHT22;59073;51.994;4.448;2022-10-20T16:47:05;17.52;84.82
71291;DHT22;59073;51.994;4.448;2022-10-20T16:49:30;17.38;85.32
71291;DHT22;59073;51.994;4.448;2022-10-20T16:51:56;17.34;85.72
71291;DHT22;59073;51.994;4.448;2022-10-20T16:54:21;17.24;85.78
71291;DHT22;59073;51.994;4.448;2022-10-20T16:56:47;17.18;86.12
71291;DHT22;59073;51.994;4.448;2022-10-20T16:59:13;17.20;86.18
71291;DHT22;59073;51.994;4.448;2022-10-20T17:01:39;17.11;86.58
71291;DHT22;59073;51.994;4.448;2022-10-20T17:04:04;17.12;86.74
71291;DHT22;59073;51.994;4.448;2022-10-20T17:06:29;17.07;86.81
71291;DHT22;59073;51.994;4.448;2022-10-20T17:08:57;17.03;87.12
71291;DHT22;59073;51.994;4.448;2022-10-20T17:11:28;16.97;87.13
71291;DHT22;59073;51.994;4.448;2022-10-20T17:13:55;16.93;87.41
71291;DHT22;59073;51.994;4.448;2022-10-20T17:16:26;16.87;87.46
71291;DHT22;59073;51.994;4.448;2022-10-20T17:18:53;16.88;87.27
71291;DHT22;59073;51.994;4.448;2022-10-20T17:21:18;16.81;87.46
71291;DHT22;59073;51.994;4.448;2022-10-20T17:23:44;16.80;87.31
71291;DHT22;59073;51.994;4.448;2022-10-20T17:26:14;16.77;87.80
71291;DHT22;59073;51.994;4.448;2022-10-20T17:28:40;16.81;87.92
71291;DHT22;59073;51.994;4.448;2022-10-20T17:31:10;16.81;87.78
71291;DHT22;59073;51.994;4.448;2022-10-20T17:33:37;16.79;87.98
71291;DHT22;59073;51.994;4.448;2022-10-20T17:36:04;16.81;88.01
71291;DHT22;59073;51.994;4.448;2022-10-20T17:38:30;16.77;87.98
71291;DHT22;59073;51.994;4.448;2022-10-20T17:41:05;16.71;87.85
71291;DHT22;59073;51.994;4.448;2022-10-20T17:43:31;16.69;88.12
71291;DHT22;59073;51.994;4.448;2022-10-20T17:46:05;16.67;87.97